Time;durP1;ratioP1;P1;durP2;ratioP2;P2;SDS_P1;SDS_P2;PMS_P1;PMS_P2;Temp;Humidity;BMP_temperature;BMP_pressure;BME280_temperature;BME280_humidity;BME280_pressure;Samples;Min_cycle;Max_cycle;Signal;HPM_P1;HPM_P2
2024/01/17 00:00:27;;;;;;;74.70;32.50;;;;;;;-5.25;93.03;99932.31;52050;1260;1098019;-80
2024/01/17 00:03:32;;;;;;;69.80;32.90;;;;;;;-5.26;93.40;99930.29;51936;1260;1097547;-80
2024/01/17 00:06:18;;;;;;;60.20;29.00;;;;;;;-5.27;93.80;99924.27;52061;1256;1097385;-80
2024/01/17 00:09:04;;;;;;;55.10;26.50;;;;;;;-5.25;93.94;99925.00;52202;1261;1097024;-80
2024/01/17 00:11:51;;;;;;;58.60;27.00;;;;;;;-5.23;94.23;99921.67;51943;1257;1098648;-79
2024/01/17 00:14:37;;;;;;;47.30;23.80;;;;;;;-5.21;94.57;99928.31;51954;1260;1097165;-79
2024/01/17 00:17:22;;;;;;;57.60;25.90;;;;;;;-5.18;94.87;99929.91;52026;1260;1096562;-79
2024/01/17 00:20:08;;;;;;;52.40;26.40;;;;;;;-5.17;94.93;99924.92;52026;1260;1096927;-79
2024/01/17 00:22:54;;;;;;;55.20;27.00;;;;;;;-5.12;95.28;99927.39;52162;1257;1097374;-80
2024/01/17 00:25:40;;;;;;;60.40;27.00;;;;;;;-5.07;95.51;99921.29;52174;1256;1097444;-79
2024/01/17 00:28:25;;;;;;;52.90;26.50;;;;;;;-5.02;95.61;99921.30;51903;1274;1097764;-79
2024/01/17 00:31:12;;;;;;;55.00;25.10;;;;;;;-4.98;95.93;99922.05;52040;1260;1098344;-79
2024/01/17 00:33:57;;;;;;;53.10;26.90;;;;;;;-4.96;95.97;99923.63;52014;1261;1096654;-79
2024/01/17 00:36:44;;;;;;;49.50;25.20;;;;;;;-4.94;96.31;99927.34;52029;1260;1097090;-78
2024/01/17 00:39:29;;;;;;;52.10;25.70;;;;;;;-4.91;96.49;99925.67;51887;1260;1096787;-79
2024/01/17 00:42:15;;;;;;;50.50;25.30;;;;;;;-4.88;96.58;99926.89;51916;1260;1097520;-79
2024/01/17 00:45:03;;;;;;;55.80;26.10;;;;;;;-4.84;96.50;99930.77;52001;1257;1096977;-80
2024/01/17 00:47:49;;;;;;;50.40;25.80;;;;;;;-4.80;96.63;99929.27;52187;1257;1097889;-79
2024/01/17 00:50:34;;;;;;;54.60;24.90;;;;;;;-4.77;96.68;99927.82;52179;1260;1097144;-80
2024/01/17 00:53:22;;;;;;;53.50;25.50;;;;;;;-4.73;96.97;99929.72;52334;1260;1097350;-80
2024/01/17 00:56:08;;;;;;;51.30;25.30;;;;;;;-4.71;96.98;99940.16;52241;1255;1097584;-79
2024/01/17 00:58:53;;;;;;;53.40;26.80;;;;;;;-4.67;97.17;99941.13;52082;1258;1097936;-79
2024/01/17 01:01:39;;;;;;;55.30;26.30;;;;;;;-4.64;97.09;99933.94;52025;1258;1097030;-79
2024/01/17 01:04:25;;;;;;;61.40;28.00;;;;;;;-4.64;97.29;99936.87;51946;1258;1097479;-80
2024/01/17 01:07:11;;;;;;;55.60;26.00;;;;;;;-4.62;97.35;99939.71;51869;1256;1097428;-80
2024/01/17 01:09:57;;;;;;;52.00;26.20;;;;;;;-4.59;97.80;99942.13;52004;1261;1097978;-79
2024/01/17 01:12:43;;;;;;;49.50;24.40;;;;;;;-4.55;97.78;99942.73;51951;1261;1097440;-79
2024/01/17 01:15:28;;;;;;;53.00;26.70;;;;;;;-4.52;97.92;99942.88;52145;1255;1097424;-79
2024/01/17 01:18:14;;;;;;;55.90;25.50;;;;;;;-4.49;97.95;99942.98;52220;1260;1097092;-79
2024/01/17 01:21:00;;;;;;;53.80;26.70;;;;;;;-4.45;97.97;99942.02;52113;1256;1097464;-78
2024/01/17 01:23:46;;;;;;;53.80;27.20;;;;;;;-4.42;97.97;99933.90;52021;1255;1096648;-78
2024/01/17 01:26:32;;;;;;;53.90;28.90;;;;;;;-4.39;98.25;99926.19;52260;1261;1096867;-80
2024/01/17 01:29:18;;;;;;;53.30;26.50;;;;;;;-4.34;98.26;99923.45;52259;1255;1097582;-80
2024/01/17 01:32:03;;;;;;;53.10;29.00;;;;;;;-4.30;98.67;99925.73;52232;1257;1097156;-79
2024/01/17 01:34:49;;;;;;;59.20;28.80;;;;;;;-4.26;98.55;99920.70;52197;1264;1096866;-80
2024/01/17 01:37:35;;;;;;;62.40;30.90;;;;;;;-4.22;98.63;99906.86;51978;1261;1097507;-79
2024/01/17 01:40:20;;;;;;;69.70;31.70;;;;;;;-4.17;98.84;99904.05;52123;1274;1097211;-79
2024/01/17 01:43:20;;;;;;;61.00;29.60;;;;;;;-4.14;98.82;99897.39;52067;1257;1096858;-79
2024/01/17 01:46:12;;;;;;;71.90;30.90;;;;;;;-4.11;98.88;99901.48;52247;1260;1096561;-80
2024/01/17 01:48:58;;;;;;;65.70;30.80;;;;;;;-4.08;98.67;99897.61;52130;1261;1097516;-79
2024/01/17 01:51:46;;;;;;;65.30;30.20;;;;;;;-4.05;98.89;99890.82;52220;1261;1097682;-80
2024/01/17 01:54:33;;;;;;;67.40;29.70;;;;;;;-4.02;98.91;99888.30;52266;1255;1098236;-79
2024/01/17 01:57:19;;;;;;;63.10;33.10;;;;;;;-3.99;98.99;99884.71;52273;1260;1097123;-79
2024/01/17 02:00:06;;;;;;;61.60;30.00;;;;;;;-3.97;99.05;99884.02;52212;1260;1096817;-80
2024/01/17 02:02:58;;;;;;;60.60;30.50;;;;;;;-3.94;99.06;99877.75;52232;1256;1097189;-80
2024/01/17 02:05:45;;;;;;;61.40;31.90;;;;;;;-3.92;99.19;99880.56;52258;1255;1097834;-79
2024/01/17 02:08:34;;;;;;;67.60;30.20;;;;;;;-3.90;99.24;99882.71;52192;1256;1097586;-80
2024/01/17 02:11:19;;;;;;;66.20;30.50;;;;;;;-3.87;99.39;99882.44;52110;1261;1096774;-79
2024/01/17 02:14:05;;;;;;;69.10;32.30;;;;;;;-3.84;99.44;99879.64;52195;1260;1096883;-80
2024/01/17 02:16:51;;;;;;;68.90;29.50;;;;;;;-3.80;99.57;99876.40;52295;1255;1098375;-80
2024/01/17 02:19:40;;;;;;;65.50;29.40;;;;;;;-3.78;99.58;99877.96;52294;1260;1098311;-80
2024/01/17 02:22:26;;;;;;;63.00;30.20;;;;;;;-3.74;99.59;99884.45;52184;1256;1097351;-79
2024/01/17 02:25:11;;;;;;;65.40;30.80;;;;;;;-3.71;99.84;99886.67;51999;1260;1096923;-79
2024/01/17 02:27:57;;;;;;;60.20;29.30;;;;;;;-3.68;99.91;99881.40;52225;1258;1097417;-80
2024/01/17 02:30:44;;;;;;;65.50;29.30;;;;;;;-3.66;99.89;99878.23;52324;1259;1097244;-80
2024/01/17 02:33:30;;;;;;;67.60;29.70;;;;;;;-3.63;99.97;99881.19;52156;1259;1096927;-80
2024/01/17 02:36:16;;;;;;;60.00;29.80;;;;;;;-3.61;100.00;99886.39;52025;1255;1096643;-79
2024/01/17 02:39:02;;;;;;;67.70;30.00;;;;;;;-3.57;100.00;99884.75;52180;1261;1097525;-80
2024/01/17 02:41:47;;;;;;;58.50;28.60;;;;;;;-3.55;100.00;99878.44;52262;1260;1097080;-78
2024/01/17 02:44:33;;;;;;;60.50;27.80;;;;;;;-3.51;100.00;99870.66;52104;1271;1097104;-80
2024/01/17 02:47:19;;;;;;;56.60;27.90;;;;;;;-3.49;100.00;99868.95;52006;1260;1097616;-79
2024/01/17 02:50:06;;;;;;;58.00;27.80;;;;;;;-3.46;100.00;99878.67;51920;1261;1096631;-79
2024/01/17 02:52:52;;;;;;;57.40;26.90;;;;;;;-3.44;100.00;99879.58;52011;1258;1098129;-79
2024/01/17 02:55:38;;;;;;;51.60;24.90;;;;;;;-3.42;100.00;99876.11;51925;1260;1097288;-78
2024/01/17 02:58:24;;;;;;;54.10;25.50;;;;;;;-3.40;100.00;99880.11;51743;1260;1098182;-78
2024/01/17 03:01:12;;;;;;;55.70;25.20;;;;;;;-3.37;100.00;99881.77;52042;1261;1098061;-80
2024/01/17 03:03:58;;;;;;;52.50;25.70;;;;;;;-3.36;100.00;99873.52;51944;1259;1099675;-79
2024/01/17 03:06:45;;;;;;;60.10;27.50;;;;;;;-3.35;100.00;99874.85;51920;1261;1096769;-79
2024/01/17 03:09:31;;;;;;;56.70;26.70;;;;;;;-3.33;100.00;99873.83;52093;1258;1096675;-79
2024/01/17 03:12:20;;;;;;;60.80;27.70;;;;;;;-3.30;100.00;99873.20;51816;1261;1098497;-79
2024/01/17 03:15:07;;;;;;;55.50;27.80;;;;;;;-3.28;100.00;99866.41;51891;1260;1097574;-80
2024/01/17 03:17:53;;;;;;;55.30;26.70;;;;;;;-3.27;100.00;99862.83;52110;1261;1097288;-80
2024/01/17 03:20:41;;;;;;;58.90;28.10;;;;;;;-3.24;100.00;99867.70;52190;1262;1097050;-79
2024/01/17 03:23:27;;;;;;;51.70;24.80;;;;;;;-3.23;100.00;99860.67;52225;1260;1097515;-80
2024/01/17 03:26:13;;;;;;;53.40;26.00;;;;;;;-3.22;100.00;99857.11;52309;1261;1097223;-81
2024/01/17 03:29:00;;;;;;;57.70;26.00;;;;;;;-3.21;100.00;99846.48;52269;1258;1097517;-79
2024/01/17 03:31:47;;;;;;;54.90;26.80;;;;;;;-3.19;100.00;99850.54;52070;1261;1123391;-80
2024/01/17 03:34:33;;;;;;;53.70;27.50;;;;;;;-3.17;100.00;99855.98;52246;1260;1098060;-80
2024/01/17 03:37:18;;;;;;;48.80;24.40;;;;;;;-3.17;100.00;99858.25;52248;1264;1096594;-79
2024/01/17 03:40:05;;;;;;;55.50;26.40;;;;;;;-3.19;100.00;99860.98;51995;1261;1098603;-80
2024/01/17 03:42:50;;;;;;;62.80;25.60;;;;;;;-3.21;99.94;99867.27;51943;1258;1097527;-79
2024/01/17 03:45:36;;;;;;;50.10;24.10;;;;;;;-3.23;100.00;99867.08;51722;1255;1097279;-79
2024/01/17 03:48:22;;;;;;;54.20;25.80;;;;;;;-3.21;99.99;99866.79;51704;1259;1097964;-79
2024/01/17 03:51:08;;;;;;;50.50;24.50;;;;;;;-3.21;99.97;99873.39;51795;1261;1097792;-79
2024/01/17 03:53:54;;;;;;;53.70;24.30;;;;;;;-3.21;100.00;99877.39;51915;1261;1097445;-79
2024/01/17 03:56:39;;;;;;;56.70;25.40;;;;;;;-3.20;99.99;99880.64;52226;1261;1097514;-80
2024/01/17 03:59:27;;;;;;;48.90;23.70;;;;;;;-3.19;99.95;99879.91;52309;1260;1096600;-80
2024/01/17 04:02:12;;;;;;;51.10;25.40;;;;;;;-3.19;99.95;99884.96;52193;1256;1097063;-78
2024/01/17 04:04:58;;;;;;;58.70;25.50;;;;;;;-3.19;100.00;99881.41;52315;1255;1097274;-79
2024/01/17 04:07:44;;;;;;;56.30;24.80;;;;;;;-3.18;100.00;99882.08;52211;1259;1097449;-80
2024/01/17 04:10:29;;;;;;;51.60;25.20;;;;;;;-3.19;99.96;99884.91;52000;1261;1098220;-79
2024/01/17 04:13:16;;;;;;;59.90;26.40;;;;;;;-3.19;99.99;99883.17;51989;1256;1097080;-79
2024/01/17 04:16:01;;;;;;;53.60;25.10;;;;;;;-3.19;100.00;99883.23;51954;1261;1097964;-79
2024/01/17 04:18:47;;;;;;;50.60;24.70;;;;;;;-3.21;99.91;99880.17;52090;1260;1097937;-79
2024/01/17 04:21:33;;;;;;;52.50;24.00;;;;;;;-3.23;99.94;99879.46;52192;1258;1097265;-80
2024/01/17 04:24:19;;;;;;;57.80;25.10;;;;;;;-3.24;99.93;99870.65;52354;1256;1097245;-78
2024/01/17 04:27:04;;;;;;;53.20;24.80;;;;;;;-3.23;99.87;99879.50;52246;1265;1098180;-80
2024/01/17 04:29:50;;;;;;;53.90;25.60;;;;;;;-3.23;99.77;99878.06;52199;1256;1096653;-80
2024/01/17 04:32:36;;;;;;;50.60;23.60;;;;;;;-3.22;99.55;99879.92;52314;1260;1097904;-78
2024/01/17 04:35:22;;;;;;;53.60;24.40;;;;;;;-3.23;99.46;99882.60;52257;1256;1097502;-80
2024/01/17 04:38:07;;;;;;;53.40;24.70;;;;;;;-3.23;99.14;99879.70;52036;1260;1098955;-80
2024/01/17 04:40:52;;;;;;;50.70;23.60;;;;;;;-3.23;99.11;99875.27;51811;1261;1097812;-79
2024/01/17 04:43:40;;;;;;;46.60;22.30;;;;;;;-3.22;99.10;99876.45;51953;1256;1097974;-78
2024/01/17 04:46:26;;;;;;;53.60;23.80;;;;;;;-3.24;98.90;99875.55;51930;1255;1097356;-79
2024/01/17 04:49:12;;;;;;;58.80;25.90;;;;;;;-3.26;98.67;99872.42;52069;1262;1096863;-79
2024/01/17 04:51:58;;;;;;;52.30;26.50;;;;;;;-3.28;98.83;99874.48;52065;1260;1098182;-79
2024/01/17 04:54:44;;;;;;;48.50;23.60;;;;;;;-3.27;98.81;99875.60;52040;1260;1097859;-80
2024/01/17 04:57:30;;;;;;;53.00;25.80;;;;;;;-3.28;98.46;99869.06;51937;1261;1096764;-79
2024/01/17 05:00:15;;;;;;;50.80;24.60;;;;;;;-3.29;98.21;99865.84;52133;1255;1097672;-80
2024/01/17 05:03:01;;;;;;;52.40;25.00;;;;;;;-3.30;97.91;99863.44;52157;1261;1097021;-79
2024/01/17 05:05:47;;;;;;;58.40;25.90;;;;;;;-3.35;97.54;99860.15;52131;1255;1097215;-79
2024/01/17 05:08:33;;;;;;;60.10;26.40;;;;;;;-3.40;96.99;99858.88;52137;1261;1097887;-79
2024/01/17 05:11:22;;;;;;;48.00;24.80;;;;;;;-3.46;96.56;99863.14;51956;1261;1097343;-79
2024/01/17 05:14:07;;;;;;;56.30;26.00;;;;;;;-3.51;96.47;99867.92;51988;1261;1096817;-78
2024/01/17 05:16:53;;;;;;;49.90;24.80;;;;;;;-3.58;96.30;99869.09;51989;1261;1097713;-78
2024/01/17 05:19:39;;;;;;;51.20;26.80;;;;;;;-3.62;95.99;99872.23;52146;1261;1096820;-79
2024/01/17 05:22:25;;;;;;;59.40;26.60;;;;;;;-3.66;95.94;99863.41;52286;1260;1096573;-80
2024/01/17 05:25:11;;;;;;;53.90;25.40;;;;;;;-3.67;95.63;99868.77;52190;1260;1097287;-79
2024/01/17 05:27:58;;;;;;;56.20;25.10;;;;;;;-3.71;95.58;99868.48;52181;1258;1097913;-79
2024/01/17 05:30:43;;;;;;;59.90;28.80;;;;;;;-3.72;95.47;99871.79;52187;1261;1097154;-80
2024/01/17 05:33:29;;;;;;;53.30;24.40;;;;;;;-3.73;95.30;99864.02;52099;1257;1097242;-79
2024/01/17 05:36:14;;;;;;;63.60;29.30;;;;;;;-3.76;95.07;99859.34;52174;1260;1098869;-80
2024/01/17 05:39:00;;;;;;;104.80;43.40;;;;;;;-3.80;94.58;99854.08;52218;1256;1096560;-80
2024/01/17 05:41:46;;;;;;;68.70;32.00;;;;;;;-3.83;94.51;99861.76;52257;1256;1097561;-79
2024/01/17 05:44:32;;;;;;;57.00;26.70;;;;;;;-3.84;95.08;99860.46;52039;1260;1097124;-79
2024/01/17 05:47:17;;;;;;;62.60;26.40;;;;;;;-3.87;94.93;99865.02;52003;1260;1097231;-79
2024/01/17 05:50:08;;;;;;;51.90;25.00;;;;;;;-3.88;95.09;99860.43;51967;1261;1096775;-79
2024/01/17 05:52:54;;;;;;;58.50;27.60;;;;;;;-3.89;95.14;99865.16;51701;1261;1097451;-78
2024/01/17 05:55:41;;;;;;;55.00;24.50;;;;;;;-3.91;95.07;99855.75;52175;1256;1097993;-79
2024/01/17 05:58:26;;;;;;;59.50;28.00;;;;;;;-3.95;94.93;99861.79;52306;1271;1097242;-80
2024/01/17 06:01:12;;;;;;;58.80;26.00;;;;;;;-3.96;94.82;99866.38;52233;1257;1096724;-79
2024/01/17 06:03:59;;;;;;;59.70;28.80;;;;;;;-3.99;94.29;99861.55;52189;1260;1097250;-79
2024/01/17 06:06:44;;;;;;;55.50;25.90;;;;;;;-4.02;94.16;99864.39;52336;1260;1097257;-79
2024/01/17 06:09:31;;;;;;;62.00;30.30;;;;;;;-4.04;93.99;99865.46;52091;1262;1096614;-78
2024/01/17 06:12:17;;;;;;;61.10;26.60;;;;;;;-4.07;93.86;99865.14;51886;1264;1097448;-79
2024/01/17 06:15:03;;;;;;;53.20;26.10;;;;;;;-4.10;93.61;99863.61;52093;1263;1097585;-80
2024/01/17 06:17:48;;;;;;;55.90;25.40;;;;;;;-4.13;93.58;99861.91;52357;1255;1098435;-79
2024/01/17 06:20:35;;;;;;;62.30;25.00;;;;;;;-4.17;93.29;99865.33;52161;1261;1097218;-80
2024/01/17 06:23:21;;;;;;;55.60;26.00;;;;;;;-4.22;92.87;99867.31;52306;1260;1097909;-79
2024/01/17 06:26:09;;;;;;;56.00;25.30;;;;;;;-4.26;92.95;99864.80;52282;1261;1097033;-80
2024/01/17 06:28:54;;;;;;;56.60;25.20;;;;;;;-4.29;92.90;99865.56;51933;1269;1097546;-78
2024/01/17 06:31:40;;;;;;;55.00;25.20;;;;;;;-4.34;92.55;99857.71;51873;1262;1097683;-79
2024/01/17 06:34:26;;;;;;;59.10;25.70;;;;;;;-4.39;92.31;99859.80;51783;1259;1097171;-80
2024/01/17 06:37:12;;;;;;;53.60;24.80;;;;;;;-4.44;92.10;99858.27;51928;1256;1098345;-80
2024/01/17 06:39:57;;;;;;;64.30;26.00;;;;;;;-4.49;91.92;99858.13;52222;1263;1097586;-80
2024/01/17 06:42:43;;;;;;;61.70;27.10;;;;;;;-4.55;91.69;99856.98;52198;1261;1097963;-80
2024/01/17 06:45:29;;;;;;;55.70;27.20;;;;;;;-4.57;91.85;99853.64;52244;1260;1098002;-80
2024/01/17 06:48:15;;;;;;;64.40;27.50;;;;;;;-4.59;91.78;99845.79;52207;1260;1096899;-80
2024/01/17 06:51:01;;;;;;;75.50;29.70;;;;;;;-4.62;91.69;99842.67;52284;1260;1096920;-79
2024/01/17 06:53:47;;;;;;;68.90;31.30;;;;;;;-4.65;91.80;99834.39;52086;1260;1098231;-79
2024/01/17 06:56:34;;;;;;;69.30;32.70;;;;;;;-4.70;91.70;99834.02;52048;1258;1098027;-78
2024/01/17 06:59:20;;;;;;;58.40;29.10;;;;;;;-4.73;91.95;99834.06;52080;1260;1097212;-80
2024/01/17 07:02:06;;;;;;;61.00;30.30;;;;;;;-4.74;91.98;99824.94;52124;1262;1097058;-79
2024/01/17 07:04:52;;;;;;;64.20;29.90;;;;;;;-4.75;92.06;99818.16;52086;1262;1097531;-79
2024/01/17 07:07:39;;;;;;;60.60;30.00;;;;;;;-4.75;91.99;99812.77;51935;1261;1098189;-78
2024/01/17 07:10:24;;;;;;;67.40;31.40;;;;;;;-4.70;92.85;99809.98;52496;1260;1097701;-78
2024/01/17 07:13:10;;;;;;;67.70;31.50;;;;;;;-4.63;93.21;99804.78;52113;1259;1096854;-79
2024/01/17 07:15:55;;;;;;;73.90;32.70;;;;;;;-4.60;92.62;99798.83;52124;1266;1097220;-79
2024/01/17 07:18:42;;;;;;;73.50;33.70;;;;;;;-4.60;92.36;99790.67;52095;1261;1097986;-80
2024/01/17 07:21:27;;;;;;;86.50;36.30;;;;;;;-4.61;92.22;99786.04;52023;1265;1097781;-80
2024/01/17 07:24:13;;;;;;;84.00;36.60;;;;;;;-4.62;92.12;99783.52;52002;1263;1098200;-79
2024/01/17 07:26:58;;;;;;;90.00;37.20;;;;;;;-4.63;92.28;99779.68;52265;1269;1097232;-80
2024/01/17 07:29:44;;;;;;;81.10;35.20;;;;;;;-4.64;92.41;99777.15;52359;1260;1097123;-80
2024/01/17 07:32:30;;;;;;;75.60;32.40;;;;;;;-4.64;92.59;99773.19;52338;1269;1097963;-80
2024/01/17 07:35:16;;;;;;;76.10;33.40;;;;;;;-4.64;92.35;99767.40;52328;1261;1097770;-79
2024/01/17 07:38:02;;;;;;;75.00;34.10;;;;;;;-4.62;92.25;99766.25;52346;1260;1097452;-80
2024/01/17 07:40:48;;;;;;;69.20;31.60;;;;;;;-4.62;92.31;99766.08;52411;1257;1097532;-80
2024/01/17 07:43:34;;;;;;;62.10;30.10;;;;;;;-4.64;92.76;99765.17;52218;1257;1096778;-80
2024/01/17 07:46:19;;;;;;;62.40;29.90;;;;;;;-4.66;92.77;99763.57;52624;1261;1097134;-80
2024/01/17 07:49:05;;;;;;;69.60;31.30;;;;;;;-4.67;92.69;99763.84;52679;1259;1096711;-80
2024/01/17 07:51:51;;;;;;;62.40;29.70;;;;;;;-4.68;92.94;99761.80;52249;1261;1096500;-79
2024/01/17 07:54:37;;;;;;;74.90;34.10;;;;;;;-4.68;92.89;99757.75;52166;1261;1098051;-80
2024/01/17 07:57:23;;;;;;;70.60;32.10;;;;;;;-4.66;92.87;99754.55;52046;1261;1096958;-81
2024/01/17 08:00:11;;;;;;;71.70;32.80;;;;;;;-4.67;92.80;99748.28;52042;1266;1097395;-80
2024/01/17 08:03:00;;;;;;;71.00;32.80;;;;;;;-4.68;92.71;99743.56;52179;1261;1097250;-77
2024/01/17 08:05:46;;;;;;;99.10;41.90;;;;;;;-4.72;92.72;99736.10;52084;1280;1097467;-79
2024/01/17 08:08:32;;;;;;;107.20;48.60;;;;;;;-4.72;92.85;99734.20;51997;1262;1098231;-79
2024/01/17 08:11:17;;;;;;;96.20;44.10;;;;;;;-4.68;93.03;99728.70;51908;1259;1097663;-79
2024/01/17 08:14:03;;;;;;;89.90;41.50;;;;;;;-4.67;93.07;99727.27;52037;1264;1096782;-79
2024/01/17 08:16:50;;;;;;;94.80;41.50;;;;;;;-4.67;93.08;99731.23;51939;1258;1096905;-79
2024/01/17 08:19:36;;;;;;;83.00;37.10;;;;;;;-4.72;92.76;99733.89;51842;1260;1098195;-79
2024/01/17 08:22:21;;;;;;;79.20;35.30;;;;;;;-4.79;92.33;99734.00;51924;1260;1097926;-78
2024/01/17 08:25:07;;;;;;;75.30;34.90;;;;;;;-4.83;92.51;99733.64;52127;1262;1097462;-78
2024/01/17 08:27:54;;;;;;;81.90;36.00;;;;;;;-4.85;92.50;99729.94;52090;1260;1096941;-78
2024/01/17 08:30:39;;;;;;;80.20;37.10;;;;;;;-4.85;92.85;99729.52;51953;1260;1098630;-79
2024/01/17 08:33:25;;;;;;;73.40;35.70;;;;;;;-4.87;92.79;99726.61;52109;1269;1097318;-80
2024/01/17 08:36:12;;;;;;;82.30;35.30;;;;;;;-4.91;92.89;99726.86;51898;1264;1097107;-79
2024/01/17 08:38:57;;;;;;;83.80;38.50;;;;;;;-4.91;93.18;99726.59;52124;1260;1097111;-79
2024/01/17 08:41:45;;;;;;;85.40;39.20;;;;;;;-4.89;93.06;99724.34;52196;1263;1097331;-78
2024/01/17 08:44:31;;;;;;;81.00;38.10;;;;;;;-4.85;93.51;99722.94;52180;1257;1097138;-79
2024/01/17 08:47:17;;;;;;;80.60;37.00;;;;;;;-4.78;93.50;99714.09;52261;1261;1096868;-79
2024/01/17 08:50:03;;;;;;;85.20;40.70;;;;;;;-4.74;93.17;99710.66;52181;1279;1097997;-79
2024/01/17 08:52:49;;;;;;;78.60;37.40;;;;;;;-4.73;93.21;99708.30;52290;1260;1098362;-78
2024/01/17 08:55:35;;;;;;;76.10;38.00;;;;;;;-4.68;93.32;99705.86;52667;1257;1097088;-81
2024/01/17 08:58:21;;;;;;;91.10;39.70;;;;;;;-4.62;93.48;99702.80;52698;1260;1098070;-81
2024/01/17 09:01:06;;;;;;;87.20;40.30;;;;;;;-4.59;93.12;99697.17;52678;1260;1098233;-80
2024/01/17 09:03:53;;;;;;;92.60;38.90;;;;;;;-4.59;92.99;99692.52;52538;1263;1097534;-80
2024/01/17 09:06:39;;;;;;;94.60;42.50;;;;;;;-4.55;93.32;99685.91;52585;1261;1096885;-81
2024/01/17 09:09:25;;;;;;;85.10;40.40;;;;;;;-4.50;93.42;99677.58;52733;1260;1097866;-80
2024/01/17 09:12:15;;;;;;;90.20;41.00;;;;;;;-4.48;93.44;99669.91;52367;1266;1096544;-80
2024/01/17 09:15:01;;;;;;;89.20;38.60;;;;;;;-4.42;93.41;99669.65;52427;1265;1097453;-80
2024/01/17 09:17:47;;;;;;;84.30;39.80;;;;;;;-4.37;93.32;99661.36;52327;1263;1097608;-80
2024/01/17 09:20:33;;;;;;;83.80;37.10;;;;;;;-4.32;93.43;99653.17;52297;1257;1097982;-80
2024/01/17 09:23:18;;;;;;;81.00;37.80;;;;;;;-4.28;93.40;99646.38;52353;1263;1098346;-80
2024/01/17 09:26:04;;;;;;;82.60;37.20;;;;;;;-4.23;93.61;99637.13;52411;1263;1097328;-81
2024/01/17 09:28:50;;;;;;;84.60;38.60;;;;;;;-4.18;93.54;99628.90;52476;1260;1097280;-80
2024/01/17 09:31:35;;;;;;;83.00;38.60;;;;;;;-4.12;93.82;99624.59;52411;1260;1097251;-80
2024/01/17 09:34:21;;;;;;;80.70;36.70;;;;;;;-4.05;93.93;99611.45;52728;1262;1096829;-81
2024/01/17 09:37:07;;;;;;;82.70;37.10;;;;;;;-3.97;93.82;99603.52;52603;1261;1098596;-79
2024/01/17 09:39:53;;;;;;;81.80;38.40;;;;;;;-3.97;93.37;99599.30;52597;1263;1097008;-80
2024/01/17 09:42:39;;;;;;;78.30;37.60;;;;;;;-3.95;93.29;99590.29;52601;1260;1097479;-81
2024/01/17 09:45:29;;;;;;;98.30;44.00;;;;;;;-3.91;93.50;99584.57;52696;1261;1096789;-81
2024/01/17 09:48:18;;;;;;;90.50;41.20;;;;;;;-3.88;93.66;99583.12;52474;1257;1096904;-80
2024/01/17 09:51:04;;;;;;;89.10;40.30;;;;;;;-3.84;93.55;99576.31;52471;1263;1098088;-81
2024/01/17 09:53:53;;;;;;;87.30;40.60;;;;;;;-3.80;93.64;99566.77;52422;1257;1097306;-79
2024/01/17 09:56:42;;;;;;;85.60;40.00;;;;;;;-3.74;93.55;99561.43;52457;1257;1097446;-80
2024/01/17 09:59:33;;;;;;;87.00;40.10;;;;;;;-3.71;93.58;99554.69;52423;1260;1096524;-80
2024/01/17 10:02:19;;;;;;;89.50;41.30;;;;;;;-3.66;93.78;99547.11;52456;1261;1097402;-81
2024/01/17 10:05:08;;;;;;;83.90;39.60;;;;;;;-3.61;93.54;99535.75;52150;1260;1097502;-80
2024/01/17 10:07:55;;;;;;;83.30;40.20;;;;;;;-3.56;93.78;99530.94;52269;1277;1096827;-78
2024/01/17 10:10:40;;;;;;;74.50;35.60;;;;;;;-3.53;93.59;99524.08;52192;1261;1097234;-78
2024/01/17 10:13:26;;;;;;;76.10;35.60;;;;;;;-3.47;93.88;99517.00;51952;1259;1097160;-78
2024/01/17 10:16:12;;;;;;;76.30;34.40;;;;;;;-3.42;93.89;99514.50;51938;1258;1098545;-79
2024/01/17 10:19:00;;;;;;;80.20;38.50;;;;;;;-3.39;93.71;99497.83;52164;1271;1098167;-80
2024/01/17 10:21:48;;;;;;;79.60;40.20;;;;;;;-3.35;93.77;99492.60;52176;1264;1097535;-83
2024/01/17 10:24:36;;;;;;;87.90;43.00;;;;;;;-3.32;93.80;99488.63;52281;1257;1097352;-85
2024/01/17 10:27:22;;;;;;;79.30;40.30;;;;;;;-3.27;93.63;99478.14;52300;1261;1097457;-83
2024/01/17 10:30:10;;;;;;;79.60;37.40;;;;;;;-3.22;93.87;99475.98;52346;1261;1096500;-84
2024/01/17 10:32:58;;;;;;;82.00;39.40;;;;;;;-3.17;93.85;99464.59;52273;1257;1097736;-83
2024/01/17 10:35:43;;;;;;;90.90;40.30;;;;;;;-3.11;93.50;99453.23;52317;1261;1097063;-85
2024/01/17 10:38:32;;;;;;;80.90;38.80;;;;;;;-3.08;93.28;99444.95;52202;1263;1096552;-83
2024/01/17 10:41:18;;;;;;;83.10;42.50;;;;;;;-3.04;93.31;99436.18;52431;1257;1097157;-84
2024/01/17 10:44:05;;;;;;;83.70;42.30;;;;;;;-2.99;93.42;99431.74;52379;1271;1097010;-84
2024/01/17 10:46:52;;;;;;;81.50;38.30;;;;;;;-2.93;93.34;99425.33;52399;1257;1097662;-83
2024/01/17 10:49:37;;;;;;;88.60;40.20;;;;;;;-2.85;93.33;99415.41;52276;1273;1097477;-83
2024/01/17 10:52:25;;;;;;;86.00;40.90;;;;;;;-2.77;93.21;99410.79;52242;1263;1097233;-83
2024/01/17 10:55:14;;;;;;;83.50;42.70;;;;;;;-2.71;92.93;99405.92;52276;1257;1098615;-84
2024/01/17 10:58:07;;;;;;;77.90;38.00;;;;;;;-2.65;92.66;99398.23;52238;1261;1098783;-85
2024/01/17 11:00:56;;;;;;;75.10;36.80;;;;;;;-2.60;92.51;99394.52;52400;1260;1097269;-83
2024/01/17 11:03:46;;;;;;;77.60;37.50;;;;;;;-2.55;92.50;99389.70;52444;1257;1097619;-84
2024/01/17 11:06:32;;;;;;;91.70;43.70;;;;;;;-2.52;92.44;99380.33;52337;1257;1097592;-83
2024/01/17 11:09:22;;;;;;;91.30;39.90;;;;;;;-2.48;92.31;99373.69;52213;1260;1097856;-83
2024/01/17 11:12:09;;;;;;;84.10;40.40;;;;;;;-2.44;92.20;99363.05;52568;1261;1097826;-83
2024/01/17 11:14:57;;;;;;;105.10;46.70;;;;;;;-2.36;93.60;99361.04;52285;1260;1097650;-83
2024/01/17 11:17:45;;;;;;;94.70;39.00;;;;;;;-2.16;94.08;99355.73;52570;1263;1097451;-83
2024/01/17 11:20:31;;;;;;;91.70;42.70;;;;;;;-2.04;92.71;99351.55;52236;1257;1097446;-84
2024/01/17 11:23:30;;;;;;;88.40;41.00;;;;;;;-1.97;92.22;99346.36;52363;1260;1096874;-83
2024/01/17 11:26:30;;;;;;;69.80;36.70;;;;;;;-1.91;91.83;99331.61;52331;1258;1097545;-83
2024/01/17 11:29:32;;;;;;;67.70;31.60;;;;;;;-1.86;91.59;99322.36;52445;1260;1098003;-82
2024/01/17 11:32:28;;;;;;;55.10;28.80;;;;;;;-1.84;91.10;99317.61;52193;1263;1098398;-83
2024/01/17 11:35:42;;;;;;;63.90;32.30;;;;;;;-1.83;90.98;99308.46;52234;1257;1097465;-83
2024/01/17 11:38:33;;;;;;;76.80;37.20;;;;;;;-1.79;90.69;99307.27;52237;1257;1097902;-82
2024/01/17 11:41:19;;;;;;;;;;;;;;;-1.76;90.80;99307.81;52162;1264;1098204;-84
2024/01/17 11:44:06;;;;;;;84.40;41.90;;;;;;;-1.75;90.71;99300.58;52215;1260;1098199;-83
2024/01/17 11:46:54;;;;;;;63.40;31.40;;;;;;;-1.75;90.52;99292.31;52167;1263;1098109;-82
2024/01/17 11:49:41;;;;;;;58.10;31.20;;;;;;;-1.74;90.34;99284.70;52429;1260;1097386;-83
2024/01/17 11:52:33;;;;;;;56.70;30.40;;;;;;;-1.74;90.17;99280.02;52088;1264;1097176;-83
2024/01/17 11:55:19;;;;;;;56.30;29.40;;;;;;;-1.74;90.25;99274.42;52060;1260;1097174;-82
2024/01/17 11:58:05;;;;;;;59.50;31.00;;;;;;;-1.75;89.90;99265.73;51999;1257;1097395;-83
2024/01/17 12:00:53;;;;;;;59.30;29.50;;;;;;;-1.75;89.95;99260.29;52467;1257;1096964;-82
2024/01/17 12:03:40;;;;;;;66.30;29.70;;;;;;;-1.71;90.20;99253.95;52379;1257;1097004;-83
2024/01/17 12:06:25;;;;;;;52.20;27.80;;;;;;;-1.69;89.88;99245.36;52149;1257;1096697;-83
2024/01/17 12:09:17;;;;;;;58.90;29.40;;;;;;;-1.67;89.78;99238.77;52406;1261;1096605;-83
2024/01/17 12:12:04;;;;;;;58.90;27.40;;;;;;;-1.66;89.82;99235.61;52332;1261;1097786;-84
2024/01/17 12:14:49;;;;;;;56.80;30.20;;;;;;;-1.63;89.78;99235.85;52244;1257;1098409;-83
2024/01/17 12:17:39;;;;;;;62.30;29.60;;;;;;;-1.56;91.11;99229.15;52310;1257;1098278;-82
2024/01/17 12:20:25;;;;;;;67.50;29.10;;;;;;;-1.37;92.27;99229.38;52329;1257;1097804;-84
2024/01/17 12:23:11;;;;;;;63.90;30.10;;;;;;;-1.18;91.77;99222.29;52470;1258;1097328;-83
2024/01/17 12:25:59;;;;;;;63.00;30.50;;;;;;;-1.14;89.84;99212.31;52232;1264;1097814;-83
2024/01/17 12:28:46;;;;;;;66.80;29.40;;;;;;;-1.13;89.42;99212.76;52216;1264;1096963;-83